Impacts TAF Board
For situational awareness. Not to be used for flight planning purposes.
IDs:

KMIA - Miami Intl, FL, US

Issued at 1510 UTC 01 Mar 2021
Updated at 1642 UTC 01 Mar 2021
Potential Impact None Slight Moderate High
Time1553Z 01/17Z 01/18Z 01/19Z 01/20Z 01/21Z 01/22Z 01/23Z 02/00Z 02/01Z 02/02Z 02/03Z 02/04Z 02/05Z>>
Type OBS PRVL PRVL PRVL PRVL PRVL PRVL PRVL PRVL PRVL PRVL PRVL PRVL PRVL
VIS 10 >6 >6 >6 >6 >6 >6 >6 >6 >6 >6 >6 >6 >6
CIG 45 35 35 35 35 35 35 35 35 35 -- -- -- --
Cover BKN BKN BKN BKN BKN BKN BKN BKN BKN BKN SCT SCT SCT SCT
FltCat VFR VFR VFR VFR VFR VFR VFR VFR VFR VFR VFR VFR VFR VFR
WX -- -- -- -- -- -- -- -- -- -- -- -- -- --
WDir 140 160 160 160 160 160 160 160 160 160 160 160 160 160
WSpd 12 12 12 12 12 12 12 12 12 12 5 5 5 5
WGst 17 -- -- -- -- -- -- -- -- -- -- -- -- --
Raw TAF
KMIA 011510Z 0115/0218 16012KT P6SM SCT025 BKN035
  FM020200 16005KT P6SM SCT020
  FM021500 14008KT P6SM SCT030 BKN050


Raw METAR
KMIA 011553Z 14012G17KT 10SM SCT024 SCT030 BKN045 28/22 A3013 RMK AO2 SLP202 T02780217
KMIA 011453Z 14009KT 10SM SCT021 SCT027 BKN037 27/21 A3013 RMK AO2 SLP202 T02670211 51013
KMIA 011353Z 15009KT 10SM FEW021 BKN035 26/21 A3012 RMK AO2 SLP200 T02610211

METAR Board
Radar Display
Forecast Discussion
For situational awareness. Not to be used for flight planning purposes.